Time;durP1;ratioP1;P1;durP2;ratioP2;P2;SDS_P1;SDS_P2;PMS_P1;PMS_P2;Temp;Humidity;BMP_temperature;BMP_pressure;BME280_temperature;BME280_humidity;BME280_pressure;Samples;Min_cycle;Max_cycle;Signal;HPM_P1;HPM_P2
2023/02/16 00:00:52;;;;;;;37.95;15.90;;;;;;;;;;5041239;28;20052;-74
2023/02/16 00:03:33;;;;;;;36.05;16.00;;;;;;;;;;5062815;28;20071;-74
2023/02/16 00:14:25;;;;;;;39.38;16.42;;;;;;;;;;4931869;28;20226;-80
2023/02/16 00:16:54;;;;;;;38.85;16.58;;;;;;;;;;4982966;28;20116;-73
2023/02/16 00:19:21;;;;;;;44.08;17.27;;;;;;;;;;4970285;28;20107;-78
2023/02/16 00:21:49;;;;;;;44.50;17.52;;;;;;;;;;4961379;28;20060;-75
2023/02/16 00:24:17;;;;;;;36.40;16.45;;;;;;;;;;4935207;28;20054;-78
2023/02/16 00:26:44;;;;;;;44.35;17.77;;;;;;;;;;4940233;28;20046;-73
2023/02/16 00:29:16;;;;;;;43.72;18.20;;;;;;;;;;4944269;28;20512;-82
2023/02/16 00:31:45;;;;;;;39.03;16.83;;;;;;;;;;4921071;28;20130;-75
2023/02/16 00:34:22;;;;;;;38.83;17.00;;;;;;;;;;4883065;28;20071;-70
2023/02/16 00:36:49;;;;;;;38.88;16.85;;;;;;;;;;4942715;28;20057;-81
2023/02/16 00:39:18;;;;;;;43.05;17.65;;;;;;;;;;4963316;28;20053;-71
2023/02/16 00:41:55;;;;;;;41.92;17.13;;;;;;;;;;4973521;28;20076;-77
2023/02/16 00:44:25;;;;;;;39.45;16.90;;;;;;;;;;4889156;28;20486;-84
2023/02/16 00:46:56;;;;;;;38.20;17.02;;;;;;;;;;4935826;28;20082;-76
2023/02/16 00:49:23;;;;;;;44.70;17.70;;;;;;;;;;4925975;28;20059;-73
2023/02/16 00:51:52;;;;;;;35.92;16.58;;;;;;;;;;4915039;28;20050;-70
2023/02/16 00:54:18;;;;;;;38.97;17.17;;;;;;;;;;4932169;28;20135;-78
2023/02/16 00:56:56;;;;;;;39.97;16.55;;;;;;;;;;4967681;28;20049;-79
2023/02/16 00:59:28;;;;;;;42.80;17.42;;;;;;;;;;4980436;28;20065;-75
2023/02/16 01:02:01;;;;;;;42.40;18.35;;;;;;;;;;5000150;28;20439;-73
2023/02/16 01:04:28;;;;;;;42.33;17.50;;;;;;;;;;4975765;28;20068;-78
2023/02/16 01:12:23;;;;;;;44.65;17.77;;;;;;;;;;5000414;28;20520;-82
2023/02/16 01:17:19;;;;;;;43.23;18.00;;;;;;;;;;4863373;28;20112;-79
2023/02/16 01:19:45;;;;;;;41.83;17.58;;;;;;;;;;4955057;28;20541;-74
2023/02/16 01:22:12;;;;;;;44.15;17.55;;;;;;;;;;4977583;28;20091;-71
2023/02/16 01:24:38;;;;;;;42.58;17.42;;;;;;;;;;4977456;28;20065;-79
2023/02/16 01:27:05;;;;;;;46.08;17.50;;;;;;;;;;5003869;28;20064;-81
2023/02/16 01:29:32;;;;;;;45.83;17.35;;;;;;;;;;4965469;28;20037;-72
2023/02/16 01:32:00;;;;;;;39.80;17.70;;;;;;;;;;4942326;28;20380;-82
2023/02/16 01:34:28;;;;;;;46.78;17.30;;;;;;;;;;4971436;28;20145;-79
2023/02/16 01:36:58;;;;;;;44.60;17.25;;;;;;;;;;4942749;28;20066;-76
2023/02/16 01:39:29;;;;;;;42.80;18.80;;;;;;;;;;4973689;28;20092;-75
2023/02/16 01:42:03;;;;;;;44.38;18.05;;;;;;;;;;4956979;28;20055;-70
2023/02/16 01:44:32;;;;;;;41.50;17.55;;;;;;;;;;4939712;28;20134;-74
2023/02/16 01:47:00;;;;;;;44.22;18.75;;;;;;;;;;4928929;28;20065;-79
2023/02/16 01:49:29;;;;;;;47.28;18.73;;;;;;;;;;4977601;28;20060;-74
2023/02/16 01:51:57;;;;;;;38.67;17.20;;;;;;;;;;4967489;28;20049;-74
2023/02/16 01:54:32;;;;;;;40.45;17.95;;;;;;;;;;4953876;28;20043;-76
2023/02/16 01:57:03;;;;;;;41.05;18.10;;;;;;;;;;4961792;28;20053;-82
2023/02/16 01:59:32;;;;;;;44.75;17.83;;;;;;;;;;5015156;28;20063;-76
2023/02/16 02:02:03;;;;;;;41.75;17.90;;;;;;;;;;4973852;28;20280;-79
2023/02/16 02:07:35;;;;;;;38.85;16.70;;;;;;;;;;4943527;28;20061;-79
2023/02/16 02:10:25;;;;;;;40.20;16.95;;;;;;;;;;4936108;28;20143;-78
2023/02/16 02:12:56;;;;;;;39.45;16.85;;;;;;;;;;4927753;28;20051;-75
2023/02/16 02:18:43;;;;;;;42.67;17.38;;;;;;;;;;4977501;27;20442;-70
2023/02/16 02:24:34;;;;;;;39.97;17.75;;;;;;;;;;4937704;28;20063;-68
2023/02/16 02:27:09;;;;;;;41.03;17.50;;;;;;;;;;4913078;28;20081;-77
2023/02/16 02:29:51;;;;;;;38.92;17.08;;;;;;;;;;4919364;28;20055;-74
2023/02/16 02:32:21;;;;;;;45.22;18.40;;;;;;;;;;4939151;28;20116;-80
2023/02/16 02:34:58;;;;;;;45.83;17.23;;;;;;;;;;4936112;28;20047;-69
2023/02/16 02:37:29;;;;;;;39.33;16.13;;;;;;;;;;4943015;28;20051;-74
2023/02/16 02:40:01;;;;;;;42.90;17.50;;;;;;;;;;4948824;28;20051;-73
2023/02/16 02:42:33;;;;;;;36.65;16.80;;;;;;;;;;4975551;28;20140;-69
2023/02/16 02:45:03;;;;;;;42.60;17.85;;;;;;;;;;4953748;28;20082;-76
2023/02/16 02:47:38;;;;;;;40.22;18.08;;;;;;;;;;4973389;28;20057;-67
2023/02/16 02:52:35;;;;;;;41.38;16.83;;;;;;;;;;5412308;23;20050;-71
2023/02/16 03:00:48;;;;;;;45.65;17.27;;;;;;;;;;4827048;29;20143;-80
2023/02/16 03:03:21;;;;;;;41.60;17.40;;;;;;;;;;4795680;29;20255;-78
2023/02/16 03:05:59;;;;;;;38.13;16.77;;;;;;;;;;4867233;28;20060;-77
2023/02/16 03:08:29;;;;;;;40.45;16.65;;;;;;;;;;4908998;28;20051;-71
2023/02/16 03:30:01;;;;;;;40.28;16.52;;;;;;;;;;4983624;28;20059;-76
2023/02/16 03:32:29;;;;;;;37.90;16.83;;;;;;;;;;4962138;28;20084;-74
2023/02/16 03:37:26;;;;;;;40.15;17.17;;;;;;;;;;4833721;29;20189;-80
2023/02/16 03:42:37;;;;;;;41.13;17.05;;;;;;;;;;4958600;28;20210;-77
2023/02/16 03:45:04;;;;;;;39.45;17.35;;;;;;;;;;4944949;28;20109;-80
2023/02/16 03:47:41;;;;;;;35.30;14.93;;;;;;;;;;4925434;28;20102;-71
2023/02/16 03:55:33;;;;;;;37.20;16.70;;;;;;;;;;4973303;27;20781;-69
2023/02/16 04:05:19;;;;;;;39.90;17.20;;;;;;;;;;4821452;28;20083;-79
2023/02/16 04:07:46;;;;;;;39.90;17.52;;;;;;;;;;4877894;29;20257;-71
2023/02/16 04:10:13;;;;;;;35.08;16.58;;;;;;;;;;4872951;29;20059;-82
2023/02/16 04:12:40;;;;;;;37.67;16.70;;;;;;;;;;4997254;28;20077;-73
2023/02/16 04:15:12;;;;;;;38.10;16.58;;;;;;;;;;5012594;28;20063;-78
2023/02/16 04:17:41;;;;;;;37.58;16.65;;;;;;;;;;4990220;28;20106;-76
2023/02/16 04:20:23;;;;;;;45.85;17.90;;;;;;;;;;4975591;28;20136;-71
2023/02/16 04:23:01;;;;;;;37.05;16.48;;;;;;;;;;4982192;28;20061;-79
2023/02/16 04:25:28;;;;;;;40.35;17.17;;;;;;;;;;4960311;28;20059;-74
2023/02/16 04:28:01;;;;;;;42.97;17.60;;;;;;;;;;4949328;28;20736;-76
2023/02/16 04:30:43;;;;;;;39.33;16.27;;;;;;;;;;4932555;28;20131;-76
2023/02/16 04:38:26;;;;;;;42.13;17.27;;;;;;;;;;5009144;27;20450;-73
2023/02/16 04:40:53;;;;;;;40.88;16.88;;;;;;;;;;4969706;28;20060;-73
2023/02/16 04:43:20;;;;;;;36.57;15.80;;;;;;;;;;4962735;28;20231;-75
2023/02/16 04:45:47;;;;;;;38.83;16.45;;;;;;;;;;4919851;28;20050;-83
2023/02/16 04:48:16;;;;;;;37.67;15.63;;;;;;;;;;4965026;28;20105;-78
2023/02/16 04:50:50;;;;;;;38.78;17.73;;;;;;;;;;4965997;28;20531;-79
2023/02/16 04:58:57;;;;;;;45.53;16.65;;;;;;;;;;5048069;27;20464;-82
2023/02/16 05:01:34;;;;;;;39.58;17.10;;;;;;;;;;4919624;28;20368;-71
2023/02/16 05:04:08;;;;;;;38.63;16.65;;;;;;;;;;4912088;28;20144;-77
2023/02/16 05:15:01;;;;;;;41.83;17.50;;;;;;;;;;4844046;28;20164;-77
2023/02/16 05:17:28;;;;;;;43.58;17.15;;;;;;;;;;4976782;28;20171;-73
2023/02/16 05:19:55;;;;;;;36.75;16.90;;;;;;;;;;4981753;28;20046;-71
2023/02/16 05:22:23;;;;;;;40.50;16.88;;;;;;;;;;4991887;28;20045;-74
2023/02/16 05:24:51;;;;;;;41.63;16.07;;;;;;;;;;4990489;28;20058;-73
2023/02/16 05:27:26;;;;;;;38.63;16.50;;;;;;;;;;4982924;28;20075;-75
2023/02/16 05:29:53;;;;;;;38.40;16.77;;;;;;;;;;4973700;28;20110;-75
2023/02/16 05:32:24;;;;;;;38.55;16.98;;;;;;;;;;4957091;28;20103;-73
2023/02/16 05:37:29;;;;;;;36.33;16.05;;;;;;;;;;5043567;27;20431;-72
2023/02/16 05:39:56;;;;;;;42.40;17.58;;;;;;;;;;5020537;28;20108;-73
2023/02/16 05:42:24;;;;;;;44.50;18.00;;;;;;;;;;5003423;28;20136;-81
2023/02/16 05:44:53;;;;;;;41.50;17.23;;;;;;;;;;5011104;28;20049;-81
2023/02/16 05:47:21;;;;;;;40.92;18.15;;;;;;;;;;5026826;28;20102;-74
2023/02/16 05:49:52;;;;;;;41.38;17.63;;;;;;;;;;5011676;28;20052;-70
2023/02/16 05:52:23;;;;;;;43.38;17.17;;;;;;;;;;5000078;28;20123;-80
2023/02/16 05:54:51;;;;;;;;;;;;;;;;;;4965391;28;20114;-69
2023/02/16 05:57:27;;;;;;;38.58;15.68;;;;;;;;;;4892893;29;19930;-76
2023/02/16 06:05:20;;;;;;;41.53;17.88;;;;;;;;;;4939915;27;20803;-77
2023/02/16 06:07:58;;;;;;;43.20;17.35;;;;;;;;;;4919215;28;20047;-76
2023/02/16 06:12:51;;;;;;;44.85;18.58;;;;;;;;;;4869759;29;20066;-72
2023/02/16 06:17:55;;;;;;;41.55;17.92;;;;;;;;;;4855145;28;20054;-73
2023/02/16 06:23:03;;;;;;;45.15;18.95;;;;;;;;;;4911790;28;20050;-75
2023/02/16 06:38:48;;;;;;;40.35;16.27;;;;;;;;;;4742928;27;7361339;-74
2023/02/16 06:41:34;;;;;;;44.97;18.13;;;;;;;;;;4945738;28;20120;-75
2023/02/16 06:44:06;;;;;;;44.00;18.30;;;;;;;;;;4920064;28;20096;-79
2023/02/16 06:49:30;;;;;;;42.78;18.73;;;;;;;;;;5010074;27;20478;-71
2023/02/16 06:51:59;;;;;;;45.00;20.05;;;;;;;;;;4980471;28;20071;-82
2023/02/16 06:54:26;;;;;;;44.70;19.10;;;;;;;;;;4987219;28;20053;-83
2023/02/16 06:56:56;;;;;;;46.95;19.40;;;;;;;;;;4936442;28;20405;-74
2023/02/16 06:59:38;;;;;;;;;;;;;;;;;;;;;
2023/02/16 07:04:31;;;;;;;48.88;19.10;;;;;;;;;;4898503;28;20054;-74
2023/02/16 07:06:58;;;;;;;44.22;18.35;;;;;;;;;;4965654;28;20160;-80
2023/02/16 07:09:33;;;;;;;48.05;19.20;;;;;;;;;;4993425;28;20058;-73
2023/02/16 07:12:06;;;;;;;51.88;19.20;;;;;;;;;;5007419;28;20132;-74
2023/02/16 07:14:37;;;;;;;46.55;20.50;;;;;;;;;;4991270;28;20053;-81
2023/02/16 07:17:03;;;;;;;44.30;19.02;;;;;;;;;;4975153;28;20095;-80
2023/02/16 07:19:31;;;;;;;47.92;20.23;;;;;;;;;;4985181;28;20085;-77
2023/02/16 07:22:10;;;;;;;;;;;;;;;;;;;;;
2023/02/16 07:24:36;;;;;;;;;;;;;;;;;;4984714;28;20049;-79
2023/02/16 07:27:07;;;;;;;41.30;18.70;;;;;;;;;;4895302;28;19926;-79
2023/02/16 07:30:09;;;;;;;48.85;19.17;;;;;;;;;;4954377;28;20526;-75
2023/02/16 07:51:35;;;;;;;37.58;16.08;;;;;;;;;;4973174;27;20438;-75
2023/02/16 07:54:04;;;;;;;48.63;19.40;;;;;;;;;;4914089;28;20060;-79
2023/02/16 07:56:35;;;;;;;45.60;19.58;;;;;;;;;;4856052;29;20051;-85
2023/02/16 07:59:02;;;;;;;50.10;19.73;;;;;;;;;;4884909;29;20048;-86
2023/02/16 08:01:31;;;;;;;43.13;18.48;;;;;;;;;;4920716;28;20051;-83
2023/02/16 08:03:58;;;;;;;;;;;;;;;;;;4972987;28;20071;-78
2023/02/16 08:06:28;;;;;;;42.23;18.87;;;;;;;;;;4897763;28;19930;-79
2023/02/16 08:17:27;;;;;;;43.70;19.25;;;;;;;;;;4893594;27;2369092;-79
2023/02/16 08:19:59;;;;;;;48.47;19.17;;;;;;;;;;4883102;29;20100;-90
2023/02/16 08:33:00;;;;;;;42.85;18.88;;;;;;;;;;4982854;28;20442;-68
2023/02/16 08:35:31;;;;;;;41.90;17.10;;;;;;;;;;4983008;28;20149;-76
2023/02/16 08:43:36;;;;;;;44.67;18.88;;;;;;;;;;5080837;27;20417;-72
2023/02/16 08:46:06;;;;;;;43.25;17.92;;;;;;;;;;5026010;28;20197;-67
2023/02/16 08:51:30;;;;;;;38.33;16.77;;;;;;;;;;4953216;28;20143;-80
2023/02/16 08:54:05;;;;;;;43.88;18.25;;;;;;;;;;4958972;28;20046;-75
2023/02/16 09:02:09;;;;;;;39.00;18.38;;;;;;;;;;4857390;29;20052;-77
2023/02/16 09:04:39;;;;;;;42.35;18.77;;;;;;;;;;4896333;28;20090;-74
2023/02/16 09:10:13;;;;;;;42.20;18.15;;;;;;;;;;5066012;27;20417;-75
2023/02/16 09:12:49;;;;;;;42.80;18.80;;;;;;;;;;4925727;28;20055;-76
2023/02/16 09:15:36;;;;;;;40.78;18.20;;;;;;;;;;4914726;28;20154;-75
2023/02/16 09:20:34;;;;;;;39.35;17.38;;;;;;;;;;4875489;29;20096;-75
2023/02/16 09:25:29;;;;;;;41.28;18.38;;;;;;;;;;4908351;28;20043;-81
2023/02/16 09:27:57;;;;;;;44.83;17.90;;;;;;;;;;4897640;28;20102;-73
2023/02/16 09:30:27;;;;;;;47.90;19.33;;;;;;;;;;4918879;28;20066;-82
2023/02/16 09:41:20;;;;;;;49.20;19.10;;;;;;;;;;5058375;27;20392;-78
2023/02/16 09:44:14;;;;;;;43.83;17.70;;;;;;;;;;4982095;28;20097;-77
2023/02/16 09:52:36;;;;;;;40.20;17.45;;;;;;;;;;4965572;27;20591;-72
2023/02/16 09:55:05;;;;;;;40.00;17.08;;;;;;;;;;4914179;28;20086;-71
2023/02/16 09:57:54;;;;;;;41.30;17.17;;;;;;;;;;4892100;28;20055;-69
2023/02/16 10:19:30;;;;;;;49.97;24.42;;;;;;;;;;5945186;22;20417;-73
2023/02/16 10:22:24;;;;;;;;;;;;;;;;;;;;;
2023/02/16 10:25:00;;;;;;;41.55;18.48;;;;;;;;;;6001427;23;20034;-78
2023/02/16 10:32:54;;;;;;;43.35;19.25;;;;;;;;;;5044691;27;20470;-74
2023/02/16 10:35:27;;;;;;;46.25;18.58;;;;;;;;;;5023312;28;20060;-66
2023/02/16 10:38:01;;;;;;;39.97;17.90;;;;;;;;;;4939800;28;20055;-71
2023/02/16 10:40:33;;;;;;;40.75;18.45;;;;;;;;;;4925139;28;20060;-74
2023/02/16 10:43:06;;;;;;;42.05;18.30;;;;;;;;;;4988395;28;20044;-69
2023/02/16 10:45:36;;;;;;;48.33;18.85;;;;;;;;;;5007265;28;20090;-74
2023/02/16 10:53:38;;;;;;;43.25;17.70;;;;;;;;;;5014437;28;20664;-81
2023/02/16 10:56:21;;;;;;;41.60;18.08;;;;;;;;;;4909903;28;20058;-76
2023/02/16 11:01:48;;;;;;;44.95;18.60;;;;;;;;;;5029554;27;20409;-74
2023/02/16 11:04:34;;;;;;;46.60;18.48;;;;;;;;;;4997527;28;20053;-77
2023/02/16 11:07:04;;;;;;;39.40;17.30;;;;;;;;;;5008538;28;20063;-74
2023/02/16 11:09:31;;;;;;;39.35;17.25;;;;;;;;;;4967051;28;20059;-80
2023/02/16 11:11:58;;;;;;;38.38;17.60;;;;;;;;;;5029446;28;20057;-75
2023/02/16 11:14:33;;;;;;;42.63;17.48;;;;;;;;;;5002373;28;20102;-79
2023/02/16 11:17:04;;;;;;;44.47;18.75;;;;;;;;;;4960379;28;20043;-83
2023/02/16 11:19:34;;;;;;;43.42;17.90;;;;;;;;;;4924175;28;20038;-75
2023/02/16 11:22:28;;;;;;;44.72;18.52;;;;;;;;;;4994837;28;20061;-69
2023/02/16 11:25:42;;;;;;;38.08;17.17;;;;;;;;;;4929319;28;20106;-76
2023/02/16 11:46:20;;;;;;;34.95;15.20;;;;;;;;;;5003803;27;20466;-77
2023/02/16 11:51:40;;;;;;;40.92;18.42;;;;;;;;;;5025572;28;20582;-68
2023/02/16 11:54:20;;;;;;;40.10;17.88;;;;;;;;;;4954724;28;20111;-73
2023/02/16 12:03:13;;;;;;;40.78;18.10;;;;;;;;;;4980658;27;20444;-76
2023/02/16 12:05:58;;;;;;;44.70;19.35;;;;;;;;;;4946149;28;20128;-71
2023/02/16 12:14:07;;;;;;;41.60;18.85;;;;;;;;;;4962414;28;20458;-75
2023/02/16 12:16:40;;;;;;;39.30;17.55;;;;;;;;;;4921607;28;20056;-72
2023/02/16 12:22:11;;;;;;;40.03;17.65;;;;;;;;;;5036287;27;20665;-71
2023/02/16 12:24:50;;;;;;;46.05;18.35;;;;;;;;;;5002162;28;20145;-74
2023/02/16 12:27:35;;;;;;;46.08;18.77;;;;;;;;;;5002008;28;20046;-75
2023/02/16 12:30:20;;;;;;;43.42;17.95;;;;;;;;;;4945004;28;20061;-77
2023/02/16 12:32:58;;;;;;;43.08;19.05;;;;;;;;;;5005169;28;20091;-67
2023/02/16 12:35:52;;;;;;;44.53;19.38;;;;;;;;;;4913087;28;20057;-75
2023/02/16 12:38:25;;;;;;;44.38;19.23;;;;;;;;;;4893585;29;20052;-71
2023/02/16 12:44:02;;;;;;;43.38;18.83;;;;;;;;;;4972363;27;20495;-71
2023/02/16 12:46:32;;;;;;;40.97;19.05;;;;;;;;;;4923217;28;20073;-75
2023/02/16 12:52:18;;;;;;;38.90;18.52;;;;;;;;;;4975534;28;20155;-71
2023/02/16 12:54:48;;;;;;;48.42;20.10;;;;;;;;;;4951483;28;20055;-72
2023/02/16 12:57:22;;;;;;;42.75;18.98;;;;;;;;;;4956708;28;20057;-76
2023/02/16 13:00:12;;;;;;;40.45;18.05;;;;;;;;;;4905749;28;20092;-78
2023/02/16 13:08:14;;;;;;;37.97;18.85;;;;;;;;;;5006829;27;20469;-79
2023/02/16 13:15:56;;;;;;;43.15;18.42;;;;;;;;;;4957685;27;1411716;-72
2023/02/16 13:18:27;;;;;;;40.00;18.92;;;;;;;;;;4971722;28;20061;-67
2023/02/16 13:20:57;;;;;;;39.90;19.13;;;;;;;;;;4915168;28;20107;-69
2023/02/16 13:23:42;;;;;;;41.67;18.90;;;;;;;;;;5001676;28;20181;-85
2023/02/16 13:26:20;;;;;;;44.20;19.17;;;;;;;;;;4999380;28;20053;-71
2023/02/16 13:28:51;;;;;;;37.83;18.85;;;;;;;;;;5015420;28;20139;-70
2023/02/16 13:31:28;;;;;;;36.67;17.55;;;;;;;;;;4943962;28;20051;-77
2023/02/16 13:34:02;;;;;;;37.83;17.75;;;;;;;;;;4961169;28;20066;-77
2023/02/16 13:39:25;;;;;;;40.17;17.85;;;;;;;;;;4878974;28;20140;-67
2023/02/16 13:41:56;;;;;;;37.83;17.30;;;;;;;;;;4837767;29;20151;-69
2023/02/16 13:44:23;;;;;;;41.13;18.92;;;;;;;;;;4920910;28;20097;-78
2023/02/16 13:46:52;;;;;;;35.67;17.42;;;;;;;;;;4945136;28;20054;-72
2023/02/16 13:51:50;;;;;;;40.25;19.08;;;;;;;;;;4868800;29;20139;-70
2023/02/16 13:54:23;;;;;;;35.72;16.67;;;;;;;;;;4942989;28;20058;-74
2023/02/16 13:56:52;;;;;;;43.03;19.02;;;;;;;;;;4987326;28;20332;-68
2023/02/16 13:59:40;;;;;;;39.40;17.67;;;;;;;;;;5023108;28;20147;-68
2023/02/16 14:02:12;;;;;;;40.53;17.67;;;;;;;;;;5046580;28;20063;-72
2023/02/16 14:04:56;;;;;;;40.67;18.10;;;;;;;;;;5057883;28;20045;-70
2023/02/16 14:07:34;;;;;;;41.42;17.95;;;;;;;;;;5022554;28;20143;-72
2023/02/16 14:10:01;;;;;;;42.00;18.08;;;;;;;;;;5058024;28;20055;-70
2023/02/16 14:12:30;;;;;;;38.13;18.05;;;;;;;;;;4976130;28;20117;-72
2023/02/16 14:17:54;;;;;;;38.90;17.85;;;;;;;;;;4937917;28;20149;-74
2023/02/16 14:20:29;;;;;;;40.17;17.73;;;;;;;;;;4887779;28;20052;-74
2023/02/16 14:23:01;;;;;;;35.03;16.70;;;;;;;;;;4966414;28;20051;-71
2023/02/16 14:25:36;;;;;;;43.90;17.38;;;;;;;;;;4935552;28;20053;-77
2023/02/16 14:33:29;;;;;;;36.85;18.02;;;;;;;;;;5051416;27;20405;-74
2023/02/16 14:36:12;;;;;;;36.03;17.00;;;;;;;;;;5000929;28;20143;-73
2023/02/16 14:38:46;;;;;;;36.80;17.10;;;;;;;;;;4993326;28;20059;-68
2023/02/16 14:44:18;;;;;;;35.47;16.33;;;;;;;;;;5057223;27;20825;-70
2023/02/16 14:46:48;;;;;;;35.40;16.55;;;;;;;;;;5020549;28;20049;-74
2023/02/16 14:49:32;;;;;;;36.55;15.80;;;;;;;;;;4981028;28;20050;-78
2023/02/16 14:52:28;;;;;;;33.55;16.25;;;;;;;;;;4976577;28;20053;-76
2023/02/16 14:55:10;;;;;;;36.28;15.80;;;;;;;;;;5022584;28;20052;-67
2023/02/16 14:57:42;;;;;;;36.47;16.52;;;;;;;;;;4996241;28;20044;-70
2023/02/16 15:00:19;;;;;;;36.63;17.17;;;;;;;;;;4993486;28;20115;-71
2023/02/16 15:02:55;;;;;;;35.17;16.95;;;;;;;;;;5001783;28;20140;-72
2023/02/16 15:05:31;;;;;;;32.55;15.77;;;;;;;;;;4982250;28;20111;-71
2023/02/16 15:08:04;;;;;;;36.97;15.98;;;;;;;;;;4978844;28;20045;-74
2023/02/16 15:10:34;;;;;;;38.03;16.88;;;;;;;;;;4981204;28;20062;-73
2023/02/16 15:13:05;;;;;;;30.92;14.57;;;;;;;;;;4987202;28;20116;-82
2023/02/16 15:15:48;;;;;;;36.35;15.73;;;;;;;;;;4999314;28;20048;-70
2023/02/16 15:18:17;;;;;;;33.80;15.75;;;;;;;;;;4989404;28;20078;-76
2023/02/16 15:20:46;;;;;;;33.35;15.63;;;;;;;;;;4964596;28;20056;-77
2023/02/16 15:23:39;;;;;;;36.38;15.18;;;;;;;;;;4939964;28;20129;-79
2023/02/16 15:26:07;;;;;;;33.47;14.95;;;;;;;;;;4998261;28;20069;-69
2023/02/16 15:28:35;;;;;;;33.60;16.02;;;;;;;;;;5000246;28;20151;-70
2023/02/16 15:31:05;;;;;;;30.20;14.68;;;;;;;;;;4958971;28;20084;-72
2023/02/16 15:33:35;;;;;;;32.65;16.25;;;;;;;;;;4942681;28;20041;-70
2023/02/16 15:36:09;;;;;;;32.13;14.43;;;;;;;;;;4953469;28;20053;-78
2023/02/16 15:38:37;;;;;;;30.55;14.70;;;;;;;;;;4968831;28;20277;-66
2023/02/16 15:41:13;;;;;;;30.38;14.13;;;;;;;;;;4971579;28;20048;-80
2023/02/16 15:43:46;;;;;;;31.98;13.63;;;;;;;;;;4950440;28;20474;-77
2023/02/16 15:46:26;;;;;;;30.55;14.82;;;;;;;;;;4998026;28;20060;-71
2023/02/16 15:49:06;;;;;;;;;;;;;;;;;;;;;
2023/02/16 15:51:34;;;;;;;28.05;14.10;;;;;;;;;;4908516;28;20050;-78
2023/02/16 15:54:01;;;;;;;28.20;13.47;;;;;;;;;;4978867;28;20053;-66
2023/02/16 15:56:40;;;;;;;31.50;13.82;;;;;;;;;;4978164;28;20049;-63
2023/02/16 15:59:07;;;;;;;;;;;;;;;;;;4979677;28;20053;-63
2023/02/16 16:01:55;;;;;;;27.75;13.05;;;;;;;;;;4951732;28;19925;-73
2023/02/16 16:04:22;;;;;;;28.65;13.50;;;;;;;;;;4948305;28;20057;-70
2023/02/16 16:06:51;;;;;;;29.10;13.38;;;;;;;;;;5001874;28;20174;-70
2023/02/16 16:09:22;;;;;;;30.75;13.18;;;;;;;;;;4998815;28;20057;-70
2023/02/16 16:11:48;;;;;;;26.95;13.18;;;;;;;;;;4947784;28;21012;-70
2023/02/16 16:14:23;;;;;;;30.08;13.52;;;;;;;;;;4957400;28;20058;-72
2023/02/16 16:16:52;;;;;;;28.63;13.88;;;;;;;;;;5001073;28;20050;-66
2023/02/16 16:19:34;;;;;;;26.05;12.60;;;;;;;;;;4924713;28;20145;-77
2023/02/16 16:22:03;;;;;;;27.50;13.38;;;;;;;;;;4913135;28;20061;-70
2023/02/16 16:24:33;;;;;;;25.63;12.90;;;;;;;;;;5011252;28;20048;-73
2023/02/16 16:27:03;;;;;;;30.13;13.85;;;;;;;;;;5005230;28;20200;-68
2023/02/16 16:29:31;;;;;;;29.77;13.27;;;;;;;;;;4968932;28;20065;-70
2023/02/16 16:32:00;;;;;;;26.42;12.55;;;;;;;;;;4936508;28;20234;-69
2023/02/16 16:34:30;;;;;;;;;;;;;;;;;;4991648;28;20048;-73
2023/02/16 16:36:57;;;;;;;25.25;11.18;;;;;;;;;;4987758;28;19956;-67
2023/02/16 16:39:26;;;;;;;26.15;12.40;;;;;;;;;;4993070;28;20063;-69
2023/02/16 16:41:53;;;;;;;;;;;;;;;;;;4936151;28;20058;-68
2023/02/16 16:44:31;;;;;;;23.73;11.55;;;;;;;;;;4968181;28;19931;-71
2023/02/16 16:47:11;;;;;;;30.77;13.13;;;;;;;;;;4965805;28;20068;-70
2023/02/16 16:49:37;;;;;;;25.75;12.63;;;;;;;;;;4956625;28;20155;-68
2023/02/16 16:52:05;;;;;;;25.67;12.32;;;;;;;;;;4935920;28;20077;-72
2023/02/16 16:54:32;;;;;;;26.02;11.90;;;;;;;;;;4995268;28;20108;-69
2023/02/16 16:56:59;;;;;;;27.63;12.68;;;;;;;;;;4991977;28;20103;-68
2023/02/16 16:59:26;;;;;;;27.27;12.18;;;;;;;;;;4963472;28;20068;-69
2023/02/16 17:01:55;;;;;;;25.45;12.55;;;;;;;;;;4950309;28;20075;-72
2023/02/16 17:04:24;;;;;;;28.10;12.35;;;;;;;;;;4992643;28;20140;-71
2023/02/16 17:06:57;;;;;;;25.77;11.90;;;;;;;;;;4976376;28;20074;-70
2023/02/16 17:09:26;;;;;;;25.73;12.13;;;;;;;;;;4949125;28;20066;-74
2023/02/16 17:11:56;;;;;;;26.35;13.13;;;;;;;;;;4922812;28;20062;-73
2023/02/16 17:14:23;;;;;;;27.50;11.70;;;;;;;;;;4927403;28;20087;-68
2023/02/16 17:16:55;;;;;;;27.73;11.93;;;;;;;;;;4928166;28;20306;-68
2023/02/16 17:19:24;;;;;;;28.40;13.18;;;;;;;;;;4935941;28;20113;-69
2023/02/16 17:21:51;;;;;;;24.38;11.50;;;;;;;;;;4988810;28;20054;-70
2023/02/16 17:24:19;;;;;;;27.55;12.77;;;;;;;;;;4974650;28;20052;-68
2023/02/16 17:30:27;;;;;;;24.85;11.85;;;;;;;;;;4894360;28;20058;-74
2023/02/16 17:35:50;;;;;;;27.75;12.23;;;;;;;;;;4977791;28;20447;-71
2023/02/16 17:38:22;;;;;;;26.90;11.80;;;;;;;;;;4936005;28;20046;-74
2023/02/16 17:40:49;;;;;;;23.98;11.77;;;;;;;;;;4924972;28;20149;-71
2023/02/16 17:43:18;;;;;;;23.38;11.40;;;;;;;;;;4909212;28;20058;-72
2023/02/16 17:45:48;;;;;;;26.70;12.48;;;;;;;;;;4931693;28;20249;-69
2023/02/16 17:48:16;;;;;;;25.70;11.30;;;;;;;;;;4916662;28;20082;-70
2023/02/16 17:51:01;;;;;;;27.90;12.30;;;;;;;;;;4873394;28;20044;-75
2023/02/16 17:53:28;;;;;;;26.38;11.70;;;;;;;;;;4898662;28;20113;-70
2023/02/16 17:55:55;;;;;;;29.63;12.52;;;;;;;;;;4982797;28;20057;-74
2023/02/16 17:58:23;;;;;;;24.00;11.82;;;;;;;;;;4993769;28;20077;-74
2023/02/16 18:00:53;;;;;;;31.38;12.57;;;;;;;;;;4991711;28;20061;-73
2023/02/16 18:03:24;;;;;;;24.92;12.00;;;;;;;;;;4860790;28;20066;-73
2023/02/16 18:05:51;;;;;;;27.77;12.45;;;;;;;;;;4990419;28;20209;-73
2023/02/16 18:08:19;;;;;;;25.17;12.30;;;;;;;;;;4984619;28;20080;-71
2023/02/16 18:10:47;;;;;;;31.27;12.35;;;;;;;;;;4970197;28;20061;-72
2023/02/16 18:13:14;;;;;;;26.55;12.32;;;;;;;;;;4930955;28;20060;-70
2023/02/16 18:15:44;;;;;;;24.58;11.88;;;;;;;;;;4978638;28;20054;-68
2023/02/16 18:18:11;;;;;;;27.55;12.73;;;;;;;;;;4960860;28;20057;-73
2023/02/16 18:20:40;;;;;;;26.08;11.88;;;;;;;;;;4967497;28;20301;-72
2023/02/16 18:23:08;;;;;;;33.30;12.75;;;;;;;;;;4916125;28;20058;-69
2023/02/16 18:25:40;;;;;;;27.53;11.60;;;;;;;;;;4958769;28;20058;-70
2023/02/16 18:28:12;;;;;;;21.98;11.38;;;;;;;;;;4988242;28;20308;-69
2023/02/16 18:30:39;;;;;;;26.40;11.18;;;;;;;;;;4981289;28;20064;-69
2023/02/16 18:33:07;;;;;;;27.83;12.32;;;;;;;;;;4930512;28;20139;-76
2023/02/16 18:35:36;;;;;;;27.23;11.85;;;;;;;;;;4971308;28;20566;-73
2023/02/16 18:38:03;;;;;;;27.98;12.27;;;;;;;;;;4967007;28;20050;-68
2023/02/16 18:40:31;;;;;;;24.73;12.35;;;;;;;;;;4954234;28;20242;-71
2023/02/16 18:43:01;;;;;;;27.60;12.20;;;;;;;;;;4887447;28;20058;-73
2023/02/16 18:45:28;;;;;;;26.10;12.35;;;;;;;;;;4919342;28;20054;-69
2023/02/16 18:47:54;;;;;;;24.73;11.50;;;;;;;;;;4972383;28;20057;-68
2023/02/16 18:50:21;;;;;;;25.15;11.88;;;;;;;;;;4970970;28;20062;-72
2023/02/16 18:52:48;;;;;;;30.40;12.43;;;;;;;;;;4958192;28;20164;-71
2023/02/16 18:55:15;;;;;;;25.40;11.90;;;;;;;;;;4939052;28;20144;-68
2023/02/16 18:57:41;;;;;;;28.77;13.13;;;;;;;;;;4911896;28;20055;-66
2023/02/16 19:00:13;;;;;;;23.52;11.80;;;;;;;;;;4961017;28;20172;-66
2023/02/16 19:02:55;;;;;;;32.15;12.77;;;;;;;;;;4912117;28;20238;-68
2023/02/16 19:05:27;;;;;;;25.00;12.90;;;;;;;;;;4842975;29;20064;-69
2023/02/16 19:07:57;;;;;;;25.63;12.65;;;;;;;;;;4932107;28;20058;-68
2023/02/16 19:10:26;;;;;;;34.08;13.73;;;;;;;;;;4968531;28;20054;-72
2023/02/16 19:12:53;;;;;;;26.65;12.05;;;;;;;;;;4890459;28;20059;-71
2023/02/16 19:15:25;;;;;;;29.92;12.52;;;;;;;;;;4892157;28;20143;-72
2023/02/16 19:17:53;;;;;;;25.42;13.00;;;;;;;;;;4850890;29;20103;-72
2023/02/16 19:20:20;;;;;;;27.88;12.68;;;;;;;;;;4838049;29;20100;-65
2023/02/16 19:22:49;;;;;;;26.75;12.05;;;;;;;;;;4865607;29;20056;-73
2023/02/16 19:25:22;;;;;;;27.05;12.68;;;;;;;;;;4895072;29;20127;-70
2023/02/16 19:27:50;;;;;;;28.05;12.85;;;;;;;;;;4916890;28;20114;-75
2023/02/16 19:30:20;;;;;;;29.98;12.70;;;;;;;;;;4933879;28;20057;-72
2023/02/16 19:32:56;;;;;;;26.45;13.05;;;;;;;;;;4972762;28;20049;-71
2023/02/16 19:35:26;;;;;;;27.48;12.82;;;;;;;;;;4862312;28;20048;-73
2023/02/16 19:37:55;;;;;;;25.08;13.57;;;;;;;;;;4871048;28;20137;-66
2023/02/16 19:40:24;;;;;;;27.75;12.63;;;;;;;;;;4955397;28;20046;-71
2023/02/16 19:42:53;;;;;;;28.38;12.63;;;;;;;;;;4938787;28;20057;-72
2023/02/16 19:45:23;;;;;;;30.83;13.00;;;;;;;;;;4871913;28;20111;-71
2023/02/16 19:47:51;;;;;;;26.65;12.75;;;;;;;;;;4925746;28;20053;-68
2023/02/16 19:50:18;;;;;;;27.60;13.65;;;;;;;;;;4963774;28;20141;-71
2023/02/16 19:52:44;;;;;;;25.70;12.20;;;;;;;;;;4935346;28;20047;-68
2023/02/16 19:55:11;;;;;;;26.25;12.88;;;;;;;;;;4913934;28;20157;-70
2023/02/16 19:57:38;;;;;;;30.35;13.25;;;;;;;;;;4922520;28;20220;-69